Time;durP1;ratioP1;P1;durP2;ratioP2;P2;SDS_P1;SDS_P2;PMS_P1;PMS_P2;Temp;Humidity;BMP_temperature;BMP_pressure;BME280_temperature;BME280_humidity;BME280_pressure;Samples;Min_cycle;Max_cycle;Signal;HPM_P1;HPM_P2
2024/01/07 00:01:49;;;;;;;4.60;2.17;;;;;;;;;;5066206;28;20228;-69
2024/01/07 00:04:15;;;;;;;3.40;1.90;;;;;;;;;;5060056;28;20175;-70
2024/01/07 00:06:42;;;;;;;8.37;2.37;;;;;;;;;;5062804;28;20198;-69
2024/01/07 00:09:08;;;;;;;4.00;1.70;;;;;;;;;;5066373;28;20212;-69
2024/01/07 00:11:33;;;;;;;3.77;2.00;;;;;;;;;;5063708;28;20203;-72
2024/01/07 00:13:59;;;;;;;4.43;2.13;;;;;;;;;;5066229;28;20261;-70
2024/01/07 00:16:25;;;;;;;5.47;2.13;;;;;;;;;;5063046;28;20199;-69
2024/01/07 00:18:51;;;;;;;5.23;2.40;;;;;;;;;;5063543;28;20707;-69
2024/01/07 00:21:17;;;;;;;3.83;2.40;;;;;;;;;;5066199;28;20202;-69
2024/01/07 00:23:43;;;;;;;4.83;2.60;;;;;;;;;;5062587;28;20615;-69
2024/01/07 00:26:10;;;;;;;5.60;2.67;;;;;;;;;;5062122;28;20216;-70
2024/01/07 00:28:36;;;;;;;5.00;2.33;;;;;;;;;;5069389;28;20651;-70
2024/01/07 00:31:02;;;;;;;5.13;2.23;;;;;;;;;;5068432;28;20198;-71
2024/01/07 00:33:28;;;;;;;4.53;2.33;;;;;;;;;;5066115;28;20234;-71
2024/01/07 00:35:54;;;;;;;6.00;1.93;;;;;;;;;;5070060;28;20202;-71
2024/01/07 00:38:20;;;;;;;4.23;1.80;;;;;;;;;;5067005;28;20241;-73
2024/01/07 00:40:46;;;;;;;2.73;2.00;;;;;;;;;;5068340;28;20480;-71
2024/01/07 00:43:12;;;;;;;6.83;2.00;;;;;;;;;;5067635;28;20296;-72
2024/01/07 00:45:38;;;;;;;3.83;1.53;;;;;;;;;;5067679;28;20237;-73
2024/01/07 00:48:04;;;;;;;3.93;1.80;;;;;;;;;;5066373;28;20292;-70
2024/01/07 00:50:30;;;;;;;5.07;2.47;;;;;;;;;;5065248;28;20309;-71
2024/01/07 00:52:56;;;;;;;3.73;1.67;;;;;;;;;;5067371;28;20227;-72
2024/01/07 00:55:23;;;;;;;5.53;1.50;;;;;;;;;;5068276;28;20171;-71
2024/01/07 00:57:49;;;;;;;2.97;1.40;;;;;;;;;;5071577;28;20238;-71
2024/01/07 01:00:15;;;;;;;3.70;1.53;;;;;;;;;;5067045;28;20209;-70
2024/01/07 01:02:41;;;;;;;5.17;2.10;;;;;;;;;;5069537;28;20195;-70
2024/01/07 01:05:08;;;;;;;7.00;2.00;;;;;;;;;;5068642;28;20279;-72
2024/01/07 01:07:33;;;;;;;3.10;1.90;;;;;;;;;;5070691;28;20163;-71
2024/01/07 01:10:00;;;;;;;3.80;1.40;;;;;;;;;;5067641;28;20619;-72
2024/01/07 01:12:26;;;;;;;1.67;1.10;;;;;;;;;;5065653;28;20211;-71
2024/01/07 01:14:52;;;;;;;1.67;1.00;;;;;;;;;;5070690;28;20279;-72
2024/01/07 01:17:18;;;;;;;2.77;1.20;;;;;;;;;;5067658;28;20241;-72
2024/01/07 01:19:44;;;;;;;2.00;1.67;;;;;;;;;;5083625;28;20189;-71
2024/01/07 01:22:10;;;;;;;3.47;1.53;;;;;;;;;;5070549;28;20855;-72
2024/01/07 01:24:36;;;;;;;3.00;1.43;;;;;;;;;;5070331;28;20350;-73
2024/01/07 01:27:02;;;;;;;2.20;1.07;;;;;;;;;;5065702;28;20239;-74
2024/01/07 01:29:28;;;;;;;1.80;1.57;;;;;;;;;;5066173;28;21752;-73
2024/01/07 01:31:54;;;;;;;2.30;1.60;;;;;;;;;;5070137;28;20174;-71
2024/01/07 01:34:20;;;;;;;2.20;1.10;;;;;;;;;;5070479;28;20200;-72
2024/01/07 01:36:46;;;;;;;3.27;1.40;;;;;;;;;;5065529;28;20232;-72
2024/01/07 01:39:12;;;;;;;2.60;1.60;;;;;;;;;;5074289;28;20606;-72
2024/01/07 01:41:38;;;;;;;2.43;1.33;;;;;;;;;;5067553;28;20228;-73
2024/01/07 01:44:04;;;;;;;2.53;1.67;;;;;;;;;;5081822;28;20275;-72
2024/01/07 01:46:30;;;;;;;3.13;1.50;;;;;;;;;;5064965;28;20176;-73
2024/01/07 01:48:57;;;;;;;2.10;1.10;;;;;;;;;;5069277;28;20291;-72
2024/01/07 01:51:24;;;;;;;2.13;1.33;;;;;;;;;;5066459;28;20603;-72
2024/01/07 01:53:50;;;;;;;3.33;1.70;;;;;;;;;;5066166;28;20223;-72
2024/01/07 01:56:17;;;;;;;3.10;1.50;;;;;;;;;;5069317;28;20225;-72
2024/01/07 01:58:44;;;;;;;3.93;1.50;;;;;;;;;;5065316;28;20208;-71
2024/01/07 02:01:10;;;;;;;3.67;1.63;;;;;;;;;;5066431;28;20236;-72
2024/01/07 02:03:36;;;;;;;2.20;1.50;;;;;;;;;;5067362;28;20207;-72
2024/01/07 02:06:02;;;;;;;3.73;1.60;;;;;;;;;;5067743;28;20567;-73
2024/01/07 02:08:29;;;;;;;2.77;1.20;;;;;;;;;;5065846;28;20215;-71
2024/01/07 02:10:55;;;;;;;3.37;1.20;;;;;;;;;;5067090;28;20217;-72
2024/01/07 02:13:21;;;;;;;2.77;1.67;;;;;;;;;;5065174;28;20681;-72
2024/01/07 02:15:47;;;;;;;2.73;1.33;;;;;;;;;;5082247;28;20717;-72
2024/01/07 02:18:13;;;;;;;2.57;1.00;;;;;;;;;;5063763;28;20257;-71
2024/01/07 02:20:39;;;;;;;2.47;1.40;;;;;;;;;;5068164;28;20199;-72
2024/01/07 02:23:05;;;;;;;1.40;1.30;;;;;;;;;;5067393;28;20236;-73
2024/01/07 02:25:39;;;;;;;1.57;1.27;;;;;;;;;;5068100;28;20175;-72
2024/01/07 02:28:06;;;;;;;3.67;1.57;;;;;;;;;;5065896;28;20198;-72
2024/01/07 02:30:32;;;;;;;3.57;1.10;;;;;;;;;;5068370;28;20219;-71
2024/01/07 02:33:02;;;;;;;2.27;1.03;;;;;;;;;;5067499;28;20215;-71
2024/01/07 02:35:28;;;;;;;3.53;1.17;;;;;;;;;;5067368;28;20265;-71
2024/01/07 02:37:54;;;;;;;3.63;1.50;;;;;;;;;;5084105;28;20652;-72
2024/01/07 02:40:20;;;;;;;2.73;1.07;;;;;;;;;;5065010;28;20332;-72
2024/01/07 02:42:46;;;;;;;3.03;1.30;;;;;;;;;;5068033;28;20690;-71
2024/01/07 02:45:12;;;;;;;0.87;0.80;;;;;;;;;;5068282;28;20226;-73
2024/01/07 02:47:38;;;;;;;1.77;1.10;;;;;;;;;;5064546;28;20208;-71
2024/01/07 02:50:04;;;;;;;1.00;0.90;;;;;;;;;;5064552;28;20211;-74
2024/01/07 02:52:30;;;;;;;4.50;1.90;;;;;;;;;;5065691;28;20175;-72
2024/01/07 02:54:56;;;;;;;3.00;1.03;;;;;;;;;;5069409;28;20219;-73
2024/01/07 02:57:22;;;;;;;1.37;1.17;;;;;;;;;;5069373;28;20598;-72
2024/01/07 02:59:48;;;;;;;1.10;0.73;;;;;;;;;;5064030;28;20262;-71
2024/01/07 03:02:14;;;;;;;4.13;1.00;;;;;;;;;;5067577;28;20198;-72
2024/01/07 03:04:40;;;;;;;2.57;0.90;;;;;;;;;;5067058;28;20264;-72
2024/01/07 03:07:06;;;;;;;1.73;1.00;;;;;;;;;;5064084;28;20189;-72
2024/01/07 03:09:32;;;;;;;2.70;0.80;;;;;;;;;;5066584;28;20233;-72
2024/01/07 03:11:58;;;;;;;3.40;0.90;;;;;;;;;;5067179;28;20241;-71
2024/01/07 03:14:24;;;;;;;2.00;0.93;;;;;;;;;;5065087;28;20211;-71
2024/01/07 03:16:50;;;;;;;2.60;1.07;;;;;;;;;;5065498;28;20224;-71
2024/01/07 03:19:16;;;;;;;1.60;0.97;;;;;;;;;;5065228;28;20183;-70
2024/01/07 03:21:42;;;;;;;2.00;1.20;;;;;;;;;;5067615;28;20206;-70
2024/01/07 03:24:08;;;;;;;1.67;1.00;;;;;;;;;;5064248;28;20212;-72
2024/01/07 03:26:34;;;;;;;2.13;1.00;;;;;;;;;;5064330;28;20678;-72
2024/01/07 03:29:01;;;;;;;2.10;1.40;;;;;;;;;;5066845;28;20224;-72
2024/01/07 03:31:28;;;;;;;1.10;1.00;;;;;;;;;;5067684;28;20199;-70
2024/01/07 03:33:54;;;;;;;1.67;0.90;;;;;;;;;;5067796;28;20625;-72
2024/01/07 03:36:20;;;;;;;1.60;1.17;;;;;;;;;;5060103;28;20827;-73
2024/01/07 03:38:46;;;;;;;1.60;0.93;;;;;;;;;;5063045;28;20681;-72
2024/01/07 03:41:19;;;;;;;2.17;1.17;;;;;;;;;;5063739;28;20294;-71
2024/01/07 03:43:45;;;;;;;1.50;1.00;;;;;;;;;;5081095;28;20182;-70
2024/01/07 03:46:11;;;;;;;3.43;1.40;;;;;;;;;;5064110;28;20266;-70
2024/01/07 03:48:37;;;;;;;1.37;0.80;;;;;;;;;;5066326;28;20204;-72
2024/01/07 03:51:03;;;;;;;1.83;1.40;;;;;;;;;;5065918;28;20343;-69
2024/01/07 03:53:29;;;;;;;2.10;1.03;;;;;;;;;;5059797;28;20691;-72
2024/01/07 03:55:55;;;;;;;0.97;0.80;;;;;;;;;;5066483;28;20319;-69
2024/01/07 03:58:21;;;;;;;1.90;1.30;;;;;;;;;;5063060;28;20197;-72
2024/01/07 04:00:47;;;;;;;3.53;1.40;;;;;;;;;;5063222;28;20223;-72
2024/01/07 04:03:13;;;;;;;1.67;1.10;;;;;;;;;;5062717;28;20334;-72
2024/01/07 04:05:39;;;;;;;3.73;1.43;;;;;;;;;;5066370;28;20210;-71
2024/01/07 04:08:05;;;;;;;1.87;1.20;;;;;;;;;;5062576;28;20221;-69
2024/01/07 04:10:31;;;;;;;2.67;1.10;;;;;;;;;;5064352;28;20270;-71
2024/01/07 04:12:57;;;;;;;2.10;0.90;;;;;;;;;;5063746;28;20701;-70
2024/01/07 04:15:23;;;;;;;2.07;1.40;;;;;;;;;;5064596;28;20202;-70
2024/01/07 04:17:49;;;;;;;3.57;1.37;;;;;;;;;;5062153;28;20675;-72
2024/01/07 04:20:15;;;;;;;2.00;1.03;;;;;;;;;;5060971;28;20266;-71
2024/01/07 04:22:41;;;;;;;3.80;1.40;;;;;;;;;;5065299;28;20183;-72
2024/01/07 04:25:08;;;;;;;1.60;1.03;;;;;;;;;;5065569;28;20240;-72
2024/01/07 04:27:37;;;;;;;2.43;1.10;;;;;;;;;;5059913;28;20216;-72
2024/01/07 04:30:04;;;;;;;2.67;1.40;;;;;;;;;;5068171;28;20723;-72
2024/01/07 04:32:30;;;;;;;2.37;1.57;;;;;;;;;;5067189;28;20266;-73
2024/01/07 04:34:57;;;;;;;1.90;1.20;;;;;;;;;;5088275;28;20477;-72
2024/01/07 04:37:23;;;;;;;2.17;1.30;;;;;;;;;;5090489;28;20202;-74
2024/01/07 04:39:49;;;;;;;2.00;1.20;;;;;;;;;;5085610;28;20204;-72
2024/01/07 04:42:16;;;;;;;2.63;0.93;;;;;;;;;;5082861;28;20219;-71
2024/01/07 04:44:42;;;;;;;2.73;1.00;;;;;;;;;;5065462;28;20297;-72
2024/01/07 04:47:26;;;;;;;1.10;0.93;;;;;;;;;;5087129;28;20248;-72
2024/01/07 04:49:53;;;;;;;3.47;1.17;;;;;;;;;;5075996;28;20641;-71
2024/01/07 04:52:19;;;;;;;1.00;0.83;;;;;;;;;;5067628;28;20177;-72
2024/01/07 04:54:45;;;;;;;1.53;0.90;;;;;;;;;;5069149;28;20263;-71
2024/01/07 04:57:11;;;;;;;2.67;1.07;;;;;;;;;;5068827;28;20318;-72
2024/01/07 04:59:37;;;;;;;1.47;0.90;;;;;;;;;;5070331;28;20212;-72
2024/01/07 05:02:03;;;;;;;2.07;0.90;;;;;;;;;;5067543;28;20240;-72
2024/01/07 05:04:29;;;;;;;1.13;0.77;;;;;;;;;;5067779;28;20621;-72
2024/01/07 05:06:55;;;;;;;1.97;1.23;;;;;;;;;;5067396;28;20217;-70
2024/01/07 05:09:21;;;;;;;1.67;0.97;;;;;;;;;;5068412;28;20212;-71
2024/01/07 05:11:47;;;;;;;1.40;0.97;;;;;;;;;;5070351;28;20208;-73
2024/01/07 05:14:13;;;;;;;1.97;1.07;;;;;;;;;;5063316;28;20241;-71
2024/01/07 05:16:39;;;;;;;2.93;1.13;;;;;;;;;;5065375;28;20195;-70
2024/01/07 05:19:05;;;;;;;3.40;1.50;;;;;;;;;;5085596;28;20205;-70
2024/01/07 05:21:31;;;;;;;2.67;1.27;;;;;;;;;;5061464;28;20217;-72
2024/01/07 05:23:57;;;;;;;2.30;1.13;;;;;;;;;;5060910;28;20210;-71
2024/01/07 05:26:23;;;;;;;2.70;1.47;;;;;;;;;;5067514;28;20759;-71
2024/01/07 05:28:49;;;;;;;3.00;1.20;;;;;;;;;;5069368;28;20185;-71
2024/01/07 05:31:19;;;;;;;3.00;1.57;;;;;;;;;;5064910;28;20197;-71
2024/01/07 05:33:45;;;;;;;1.77;1.10;;;;;;;;;;5067788;28;20207;-70
2024/01/07 05:36:15;;;;;;;0.97;0.73;;;;;;;;;;5066375;28;20206;-72
2024/01/07 05:38:44;;;;;;;2.03;1.10;;;;;;;;;;5066452;28;20687;-71
2024/01/07 05:41:10;;;;;;;1.17;0.97;;;;;;;;;;5065752;28;20307;-73
2024/01/07 05:43:37;;;;;;;2.63;1.20;;;;;;;;;;5068777;28;20266;-72
2024/01/07 05:46:03;;;;;;;1.17;0.80;;;;;;;;;;5066490;28;20651;-72
2024/01/07 05:48:29;;;;;;;3.53;1.10;;;;;;;;;;5068713;28;20696;-72
2024/01/07 05:50:55;;;;;;;2.57;1.40;;;;;;;;;;5083723;28;20273;-70
2024/01/07 05:53:21;;;;;;;2.80;1.17;;;;;;;;;;5067075;28;20279;-72
2024/01/07 05:55:47;;;;;;;2.17;1.40;;;;;;;;;;5083260;28;20180;-72
2024/01/07 05:58:13;;;;;;;1.93;1.17;;;;;;;;;;5068801;28;20180;-72
2024/01/07 06:00:39;;;;;;;2.37;1.20;;;;;;;;;;5067665;28;20588;-72
2024/01/07 06:03:06;;;;;;;1.63;1.03;;;;;;;;;;5083483;28;20335;-73
2024/01/07 06:05:32;;;;;;;2.30;1.20;;;;;;;;;;5065281;28;20298;-70
2024/01/07 06:07:58;;;;;;;3.00;1.30;;;;;;;;;;5067023;28;20290;-72
2024/01/07 06:10:24;;;;;;;1.53;1.07;;;;;;;;;;5067381;28;20339;-71
2024/01/07 06:12:50;;;;;;;1.43;1.27;;;;;;;;;;5061779;28;20311;-71
2024/01/07 06:15:17;;;;;;;2.03;1.27;;;;;;;;;;5082403;28;20747;-71
2024/01/07 06:17:43;;;;;;;2.27;1.30;;;;;;;;;;5063512;28;20596;-71
2024/01/07 06:20:09;;;;;;;2.13;1.43;;;;;;;;;;5065646;28;20209;-72
2024/01/07 06:22:35;;;;;;;2.03;1.33;;;;;;;;;;5064683;28;20323;-72
2024/01/07 06:25:01;;;;;;;1.73;1.20;;;;;;;;;;5066375;28;20389;-72
2024/01/07 06:27:27;;;;;;;2.70;1.30;;;;;;;;;;5067026;28;20214;-71
2024/01/07 06:29:53;;;;;;;3.20;1.37;;;;;;;;;;5067309;28;20706;-72
2024/01/07 06:32:19;;;;;;;2.33;1.33;;;;;;;;;;5065971;28;20710;-71
2024/01/07 06:34:46;;;;;;;2.53;1.40;;;;;;;;;;5068312;28;20200;-72
2024/01/07 06:37:12;;;;;;;2.20;1.40;;;;;;;;;;5067799;28;20199;-72
2024/01/07 06:39:38;;;;;;;1.67;1.20;;;;;;;;;;5068282;28;20204;-72
2024/01/07 06:42:05;;;;;;;1.67;1.40;;;;;;;;;;5067867;28;20705;-72
2024/01/07 06:44:31;;;;;;;3.40;1.70;;;;;;;;;;5066104;28;20205;-73
2024/01/07 06:46:57;;;;;;;3.17;1.80;;;;;;;;;;5065583;28;20223;-73
2024/01/07 06:49:23;;;;;;;2.33;1.53;;;;;;;;;;5064864;28;20244;-72
2024/01/07 06:51:49;;;;;;;1.70;1.40;;;;;;;;;;5065427;28;20210;-72
2024/01/07 06:54:15;;;;;;;2.03;1.77;;;;;;;;;;5067920;28;20360;-71
2024/01/07 06:56:41;;;;;;;2.27;1.30;;;;;;;;;;5064576;28;20218;-72
2024/01/07 06:59:07;;;;;;;2.00;1.40;;;;;;;;;;5063974;28;20594;-70
2024/01/07 07:01:33;;;;;;;2.37;1.20;;;;;;;;;;5064775;28;20703;-72
2024/01/07 07:04:00;;;;;;;2.97;1.77;;;;;;;;;;5068135;28;20739;-71
2024/01/07 07:06:26;;;;;;;3.33;1.40;;;;;;;;;;5066414;28;20694;-72
2024/01/07 07:08:52;;;;;;;1.33;1.00;;;;;;;;;;5067766;28;20250;-71
2024/01/07 07:11:19;;;;;;;3.10;1.50;;;;;;;;;;5065781;28;20597;-70
2024/01/07 07:13:45;;;;;;;2.23;1.30;;;;;;;;;;5065006;28;20212;-72
2024/01/07 07:16:11;;;;;;;3.60;1.93;;;;;;;;;;5066305;28;20201;-71
2024/01/07 07:18:37;;;;;;;2.60;1.40;;;;;;;;;;5062367;28;20278;-72
2024/01/07 07:21:04;;;;;;;2.23;1.60;;;;;;;;;;5067541;28;20337;-71
2024/01/07 07:23:30;;;;;;;3.10;1.30;;;;;;;;;;5066835;28;20219;-72
2024/01/07 07:25:56;;;;;;;1.80;1.27;;;;;;;;;;5069081;28;20242;-72
2024/01/07 07:28:22;;;;;;;4.00;1.43;;;;;;;;;;5064713;28;20643;-72
2024/01/07 07:30:48;;;;;;;2.67;1.53;;;;;;;;;;5065581;28;20224;-72
2024/01/07 07:33:14;;;;;;;3.37;1.70;;;;;;;;;;5065017;28;20224;-72
2024/01/07 07:35:41;;;;;;;3.83;1.97;;;;;;;;;;5063258;28;20221;-71
2024/01/07 07:38:07;;;;;;;2.27;1.63;;;;;;;;;;5064147;28;20702;-72
2024/01/07 07:40:33;;;;;;;1.60;1.10;;;;;;;;;;5064854;28;20301;-71
2024/01/07 07:42:59;;;;;;;1.83;1.20;;;;;;;;;;5067169;28;20604;-71
2024/01/07 07:45:25;;;;;;;2.30;1.30;;;;;;;;;;5066654;28;20216;-71
2024/01/07 07:47:51;;;;;;;4.00;1.43;;;;;;;;;;5066747;28;20224;-74
2024/01/07 07:50:17;;;;;;;3.47;1.67;;;;;;;;;;5062648;28;20243;-72
2024/01/07 07:52:44;;;;;;;1.90;1.30;;;;;;;;;;5065178;28;20201;-73
2024/01/07 07:55:10;;;;;;;2.67;1.30;;;;;;;;;;5060751;28;20214;-71
2024/01/07 07:57:37;;;;;;;2.03;1.30;;;;;;;;;;5062365;28;20216;-73
2024/01/07 08:00:04;;;;;;;3.17;1.43;;;;;;;;;;5066240;28;20216;-72
2024/01/07 08:02:30;;;;;;;2.93;1.40;;;;;;;;;;5063818;28;20308;-72
2024/01/07 08:04:56;;;;;;;1.83;1.17;;;;;;;;;;5067640;28;20242;-72
2024/01/07 08:07:22;;;;;;;5.03;1.53;;;;;;;;;;5069279;28;20212;-72
2024/01/07 08:09:48;;;;;;;1.50;1.13;;;;;;;;;;5067947;28;20699;-73
2024/01/07 08:12:14;;;;;;;5.27;1.70;;;;;;;;;;5071086;28;20215;-72
2024/01/07 08:14:41;;;;;;;2.40;1.43;;;;;;;;;;5065339;28;20240;-72
2024/01/07 08:17:07;;;;;;;2.70;1.40;;;;;;;;;;5066226;28;20226;-73
2024/01/07 08:19:33;;;;;;;2.00;1.50;;;;;;;;;;5067002;28;20267;-74
2024/01/07 08:21:59;;;;;;;4.07;1.53;;;;;;;;;;5067850;28;20270;-73
2024/01/07 08:24:25;;;;;;;2.73;1.87;;;;;;;;;;5069792;28;20258;-71
2024/01/07 08:26:54;;;;;;;2.47;1.20;;;;;;;;;;5069960;28;20260;-73
2024/01/07 08:29:20;;;;;;;1.93;1.37;;;;;;;;;;5070196;28;20213;-72
2024/01/07 08:31:46;;;;;;;3.60;2.00;;;;;;;;;;5068391;28;20228;-72
2024/01/07 08:34:13;;;;;;;2.23;1.47;;;;;;;;;;5070491;28;20214;-72
2024/01/07 08:36:39;;;;;;;2.90;1.60;;;;;;;;;;5066934;28;20351;-72
2024/01/07 08:39:05;;;;;;;3.40;2.17;;;;;;;;;;5069890;28;20240;-72
2024/01/07 08:41:31;;;;;;;4.67;1.57;;;;;;;;;;5068144;28;20724;-73
2024/01/07 08:43:57;;;;;;;4.17;1.60;;;;;;;;;;5067385;28;20225;-72
2024/01/07 08:46:23;;;;;;;2.03;1.40;;;;;;;;;;5070094;28;20656;-73
2024/01/07 08:48:49;;;;;;;3.53;1.77;;;;;;;;;;5067831;28;20239;-71
2024/01/07 08:51:15;;;;;;;2.63;1.50;;;;;;;;;;5069078;28;20219;-71
2024/01/07 08:53:41;;;;;;;2.90;1.70;;;;;;;;;;5065302;28;20226;-72
2024/01/07 08:56:08;;;;;;;4.03;1.63;;;;;;;;;;5069824;28;20225;-72
2024/01/07 08:58:34;;;;;;;1.60;1.20;;;;;;;;;;5066414;28;20182;-72
2024/01/07 09:01:00;;;;;;;3.97;1.53;;;;;;;;;;5068542;28;20306;-71
2024/01/07 09:03:26;;;;;;;3.67;1.80;;;;;;;;;;5086455;28;20293;-73
2024/01/07 09:05:52;;;;;;;3.10;1.37;;;;;;;;;;5067863;28;20210;-72
2024/01/07 09:08:18;;;;;;;4.67;2.10;;;;;;;;;;5070620;28;20211;-71
2024/01/07 09:10:44;;;;;;;4.13;2.20;;;;;;;;;;5067218;28;20203;-72
2024/01/07 09:13:11;;;;;;;1.93;1.70;;;;;;;;;;5070907;28;20358;-72
2024/01/07 09:15:37;;;;;;;2.63;1.57;;;;;;;;;;5065377;28;20219;-72
2024/01/07 09:18:03;;;;;;;4.30;2.13;;;;;;;;;;5065475;28;20293;-73
2024/01/07 09:20:29;;;;;;;6.63;2.87;;;;;;;;;;5065522;28;20757;-73
2024/01/07 09:22:55;;;;;;;4.13;2.00;;;;;;;;;;5069855;28;20750;-72
2024/01/07 09:25:21;;;;;;;3.97;2.43;;;;;;;;;;5070426;28;20270;-73
2024/01/07 09:27:47;;;;;;;5.57;2.80;;;;;;;;;;5081603;28;20241;-73
2024/01/07 09:30:14;;;;;;;5.13;3.07;;;;;;;;;;5069697;28;20211;-73
2024/01/07 09:32:41;;;;;;;4.60;2.80;;;;;;;;;;5069617;28;20210;-72
2024/01/07 09:35:07;;;;;;;5.53;2.83;;;;;;;;;;5069645;28;20219;-72
2024/01/07 09:37:35;;;;;;;4.23;2.90;;;;;;;;;;5069745;28;20220;-72
2024/01/07 09:40:01;;;;;;;3.03;2.23;;;;;;;;;;5063353;28;20233;-75
2024/01/07 09:42:27;;;;;;;4.87;2.63;;;;;;;;;;5067511;28;20229;-74
2024/01/07 09:44:53;;;;;;;3.70;2.60;;;;;;;;;;5066829;28;20241;-73
2024/01/07 09:47:20;;;;;;;5.00;2.80;;;;;;;;;;5068990;28;20323;-74
2024/01/07 09:49:47;;;;;;;4.70;3.17;;;;;;;;;;5066363;28;20722;-72
2024/01/07 09:52:13;;;;;;;3.73;2.07;;;;;;;;;;5079784;28;20551;-70
2024/01/07 09:54:39;;;;;;;3.70;2.40;;;;;;;;;;5069164;28;20242;-70
2024/01/07 09:57:06;;;;;;;4.67;2.23;;;;;;;;;;5069184;28;20596;-74
2024/01/07 09:59:32;;;;;;;5.90;2.90;;;;;;;;;;5067703;28;20607;-71
2024/01/07 10:01:59;;;;;;;5.30;2.60;;;;;;;;;;5064764;28;20218;-70
2024/01/07 10:04:25;;;;;;;4.37;2.43;;;;;;;;;;5065561;28;20237;-71
2024/01/07 10:06:54;;;;;;;6.73;2.80;;;;;;;;;;5066270;28;20221;-71
2024/01/07 10:09:26;;;;;;;5.97;3.13;;;;;;;;;;5083251;28;20225;-70
2024/01/07 10:11:53;;;;;;;5.97;3.17;;;;;;;;;;5054738;28;20207;-71
2024/01/07 10:14:22;;;;;;;5.93;2.97;;;;;;;;;;5068713;28;20206;-71
2024/01/07 10:16:49;;;;;;;3.40;2.50;;;;;;;;;;5082579;28;20191;-71
2024/01/07 10:19:18;;;;;;;6.20;2.70;;;;;;;;;;5068920;28;20171;-72
2024/01/07 10:21:44;;;;;;;4.90;2.97;;;;;;;;;;5065007;28;20256;-71
2024/01/07 10:24:11;;;;;;;5.73;2.87;;;;;;;;;;5084089;28;20233;-71
2024/01/07 10:26:40;;;;;;;3.93;2.60;;;;;;;;;;5065154;28;20213;-70
2024/01/07 10:29:08;;;;;;;8.00;4.10;;;;;;;;;;5067638;28;20285;-71
2024/01/07 10:31:34;;;;;;;6.33;3.17;;;;;;;;;;5067875;28;20202;-69
2024/01/07 10:34:00;;;;;;;4.90;3.10;;;;;;;;;;5067472;28;20718;-72
2024/01/07 10:36:26;;;;;;;5.80;2.70;;;;;;;;;;5068667;28;20225;-70
2024/01/07 10:38:53;;;;;;;6.10;3.27;;;;;;;;;;5074773;28;20208;-70
2024/01/07 10:41:20;;;;;;;7.83;3.43;;;;;;;;;;5064578;28;20199;-70
2024/01/07 10:43:55;;;;;;;7.27;3.80;;;;;;;;;;5067763;28;20621;-72
2024/01/07 10:46:21;;;;;;;5.43;3.40;;;;;;;;;;5066636;28;20172;-70
2024/01/07 10:48:59;;;;;;;6.20;3.63;;;;;;;;;;5066877;28;20214;-71
2024/01/07 10:51:28;;;;;;;5.90;3.93;;;;;;;;;;5063804;28;20224;-69
2024/01/07 10:53:55;;;;;;;6.07;3.63;;;;;;;;;;5060397;28;20226;-70
2024/01/07 10:56:25;;;;;;;4.67;3.00;;;;;;;;;;5062395;28;20722;-70
2024/01/07 10:58:53;;;;;;;5.80;3.20;;;;;;;;;;5082725;28;20183;-72
2024/01/07 11:01:20;;;;;;;6.90;3.47;;;;;;;;;;5068216;28;20620;-72
2024/01/07 11:03:58;;;;;;;8.57;3.63;;;;;;;;;;5067975;28;20248;-70
2024/01/07 11:06:28;;;;;;;7.33;3.13;;;;;;;;;;5066955;28;20218;-70
2024/01/07 11:09:17;;;;;;;5.63;3.27;;;;;;;;;;5067463;28;20218;-70
2024/01/07 11:11:43;;;;;;;5.60;3.43;;;;;;;;;;5056890;28;20230;-70
2024/01/07 11:14:28;;;;;;;5.93;3.50;;;;;;;;;;5067994;28;20245;-70
2024/01/07 11:16:54;;;;;;;8.30;2.97;;;;;;;;;;5065051;28;20258;-71
2024/01/07 11:19:20;;;;;;;5.53;2.90;;;;;;;;;;5057730;28;20672;-74
2024/01/07 11:21:46;;;;;;;6.40;3.20;;;;;;;;;;5062921;28;20290;-70
2024/01/07 11:24:31;;;;;;;5.63;2.87;;;;;;;;;;5065947;28;20321;-73
2024/01/07 11:27:02;;;;;;;5.63;3.33;;;;;;;;;;5059736;28;20215;-72
2024/01/07 11:29:28;;;;;;;6.10;3.20;;;;;;;;;;5060737;28;20239;-73
2024/01/07 11:31:54;;;;;;;8.13;4.10;;;;;;;;;;5065684;28;20365;-73
2024/01/07 11:34:40;;;;;;;5.63;3.00;;;;;;;;;;5060061;28;20218;-73
2024/01/07 11:37:08;;;;;;;5.13;2.93;;;;;;;;;;5062677;28;20293;-71
2024/01/07 11:39:35;;;;;;;4.97;2.70;;;;;;;;;;5064711;28;20218;-79
2024/01/07 11:42:01;;;;;;;6.70;2.90;;;;;;;;;;5061556;28;20223;-75
2024/01/07 11:44:27;;;;;;;4.30;2.93;;;;;;;;;;5065094;28;20202;-74
2024/01/07 11:46:53;;;;;;;6.67;3.70;;;;;;;;;;5066338;28;20262;-72
2024/01/07 11:49:19;;;;;;;5.80;3.17;;;;;;;;;;5066675;28;20178;-74
2024/01/07 11:51:46;;;;;;;9.90;4.40;;;;;;;;;;5071117;28;20200;-74
2024/01/07 11:54:12;;;;;;;5.27;2.67;;;;;;;;;;5063655;28;20218;-78
2024/01/07 11:56:38;;;;;;;7.50;2.93;;;;;;;;;;5065267;28;20208;-78
2024/01/07 11:59:06;;;;;;;4.50;2.63;;;;;;;;;;5061185;28;20213;-71
2024/01/07 12:01:32;;;;;;;5.03;2.83;;;;;;;;;;5065347;28;20197;-74
2024/01/07 12:03:59;;;;;;;6.10;3.10;;;;;;;;;;5059668;28;20215;-73
2024/01/07 12:06:25;;;;;;;10.00;3.97;;;;;;;;;;5063364;28;20269;-72
2024/01/07 12:08:52;;;;;;;8.13;3.77;;;;;;;;;;5056323;28;20213;-79
2024/01/07 12:11:19;;;;;;;5.93;2.53;;;;;;;;;;5059659;28;20208;-74
2024/01/07 12:13:45;;;;;;;4.03;2.80;;;;;;;;;;5048016;28;20728;-74
2024/01/07 12:16:11;;;;;;;4.20;2.83;;;;;;;;;;5070432;28;20217;-71
2024/01/07 12:18:38;;;;;;;5.23;3.30;;;;;;;;;;5064164;28;20204;-72
2024/01/07 12:21:04;;;;;;;4.70;2.70;;;;;;;;;;5073846;28;20227;-72
2024/01/07 12:23:35;;;;;;;6.37;3.27;;;;;;;;;;5055037;28;20267;-73
2024/01/07 12:26:08;;;;;;;10.70;3.17;;;;;;;;;;5070090;28;20301;-73
2024/01/07 12:28:34;;;;;;;5.27;3.10;;;;;;;;;;5044249;28;20625;-71
2024/01/07 12:31:01;;;;;;;3.93;2.30;;;;;;;;;;5052501;28;20219;-73
2024/01/07 12:33:29;;;;;;;6.00;2.63;;;;;;;;;;5070973;28;20293;-73
2024/01/07 12:35:55;;;;;;;20.67;8.50;;;;;;;;;;5072152;28;20208;-75
2024/01/07 12:38:27;;;;;;;4.93;2.63;;;;;;;;;;5058653;28;20587;-73
2024/01/07 12:40:54;;;;;;;5.60;2.50;;;;;;;;;;5063723;28;20782;-73
2024/01/07 12:43:20;;;;;;;3.47;2.30;;;;;;;;;;5068585;28;20188;-72
2024/01/07 12:45:46;;;;;;;4.43;2.40;;;;;;;;;;5069322;28;20699;-73
2024/01/07 12:48:12;;;;;;;4.47;2.40;;;;;;;;;;5073338;28;20214;-73
2024/01/07 12:50:38;;;;;;;4.80;2.60;;;;;;;;;;5067385;28;20283;-73
2024/01/07 12:53:05;;;;;;;5.13;2.50;;;;;;;;;;5075100;28;20647;-72
2024/01/07 12:55:31;;;;;;;5.27;2.30;;;;;;;;;;5074620;28;20186;-72
2024/01/07 12:57:58;;;;;;;4.90;2.50;;;;;;;;;;5075694;28;20207;-72
2024/01/07 13:00:25;;;;;;;3.23;2.07;;;;;;;;;;5055855;28;20317;-74
2024/01/07 13:02:51;;;;;;;4.83;2.30;;;;;;;;;;5075614;28;20302;-72
2024/01/07 13:05:17;;;;;;;3.23;2.37;;;;;;;;;;5075702;28;20717;-72
2024/01/07 13:07:43;;;;;;;4.73;2.00;;;;;;;;;;5057462;28;20262;-72
2024/01/07 13:10:09;;;;;;;4.83;2.00;;;;;;;;;;5072844;28;20267;-73
2024/01/07 13:12:36;;;;;;;4.47;2.33;;;;;;;;;;5078891;28;20196;-72
2024/01/07 13:15:02;;;;;;;4.60;2.40;;;;;;;;;;5071557;28;20222;-72
2024/01/07 13:17:30;;;;;;;6.60;3.20;;;;;;;;;;5075028;28;20214;-72
2024/01/07 13:19:56;;;;;;;7.97;3.80;;;;;;;;;;5071396;28;20258;-73
2024/01/07 13:22:22;;;;;;;4.13;2.43;;;;;;;;;;5075784;28;20210;-73
2024/01/07 13:24:49;;;;;;;4.33;2.30;;;;;;;;;;5078078;28;20201;-72
2024/01/07 13:27:15;;;;;;;8.60;2.70;;;;;;;;;;5077054;28;20736;-72
2024/01/07 13:29:41;;;;;;;3.63;2.00;;;;;;;;;;5075483;28;20212;-73
2024/01/07 13:32:07;;;;;;;3.23;1.97;;;;;;;;;;5077704;28;20220;-73
2024/01/07 13:34:33;;;;;;;3.17;2.30;;;;;;;;;;5074004;28;20560;-72
2024/01/07 13:36:59;;;;;;;4.27;2.93;;;;;;;;;;5079004;28;20203;-72
2024/01/07 13:39:25;;;;;;;3.10;2.10;;;;;;;;;;5058095;28;20201;-72
2024/01/07 13:41:51;;;;;;;5.10;2.73;;;;;;;;;;5074488;28;20226;-72
2024/01/07 13:44:17;;;;;;;4.70;2.70;;;;;;;;;;5076589;28;20511;-72
2024/01/07 13:46:45;;;;;;;5.77;1.90;;;;;;;;;;5074206;28;20182;-71
2024/01/07 13:49:11;;;;;;;4.30;2.20;;;;;;;;;;5069798;28;20171;-73
2024/01/07 13:51:37;;;;;;;6.43;2.10;;;;;;;;;;5054365;28;20261;-72
2024/01/07 13:54:03;;;;;;;4.03;1.97;;;;;;;;;;5068129;28;20222;-72
2024/01/07 13:56:30;;;;;;;7.93;2.60;;;;;;;;;;5068558;28;20195;-72
2024/01/07 13:58:56;;;;;;;5.20;2.03;;;;;;;;;;5068328;28;20213;-72
2024/01/07 14:01:22;;;;;;;5.13;2.70;;;;;;;;;;5063805;28;20326;-73
2024/01/07 14:03:48;;;;;;;4.27;2.10;;;;;;;;;;5065244;28;20207;-73
2024/01/07 14:06:14;;;;;;;5.90;2.53;;;;;;;;;;5064008;28;20222;-73
2024/01/07 14:08:40;;;;;;;5.63;2.53;;;;;;;;;;5066277;28;20677;-73
2024/01/07 14:11:07;;;;;;;3.80;2.17;;;;;;;;;;5061548;28;20220;-73
2024/01/07 14:13:33;;;;;;;5.73;2.33;;;;;;;;;;5079311;28;20191;-72
2024/01/07 14:16:00;;;;;;;6.43;2.70;;;;;;;;;;5067099;28;20218;-73
2024/01/07 14:18:26;;;;;;;7.27;2.70;;;;;;;;;;5065348;28;20700;-74
2024/01/07 14:20:53;;;;;;;4.83;2.67;;;;;;;;;;5063122;28;20264;-72
2024/01/07 14:23:20;;;;;;;6.10;3.13;;;;;;;;;;5065833;28;20835;-72
2024/01/07 14:25:46;;;;;;;7.67;3.00;;;;;;;;;;5066956;28;20175;-72
2024/01/07 14:28:12;;;;;;;8.97;3.00;;;;;;;;;;5064999;28;20172;-72
2024/01/07 14:30:38;;;;;;;8.67;3.40;;;;;;;;;;5078553;28;20207;-74
2024/01/07 14:33:05;;;;;;;6.63;3.30;;;;;;;;;;5063027;28;20834;-75
2024/01/07 14:35:31;;;;;;;11.90;3.50;;;;;;;;;;5067165;28;20203;-73
2024/01/07 14:38:00;;;;;;;10.73;4.10;;;;;;;;;;5066815;28;20284;-75
2024/01/07 14:40:26;;;;;;;9.37;3.37;;;;;;;;;;5064941;28;20188;-73